createdAt,value
2023-04-20T00:02:04.353Z,69.27
2023-04-20T00:07:09.151Z,68.48
2023-04-20T00:12:12.354Z,68.30
2023-04-20T00:17:15.620Z,67.22
2023-04-20T00:22:20.310Z,67.47
2023-04-20T00:27:23.647Z,66.48
2023-04-20T00:32:28.716Z,66.61
2023-04-20T00:37:33.352Z,66.99
2023-04-20T00:42:36.705Z,66.56
2023-04-20T00:47:40.177Z,65.89
2023-04-20T00:52:45.753Z,65.63
2023-04-20T00:57:49.136Z,65.83
2023-04-20T01:02:52.558Z,66.41
2023-04-20T01:07:57.395Z,66.90
2023-04-20T01:13:00.425Z,67.75
2023-04-20T01:18:04.174Z,67.85
2023-04-20T01:23:08.882Z,67.18
2023-04-20T01:28:14.577Z,65.98
2023-04-20T01:33:17.827Z,65.97
2023-04-20T01:38:23.521Z,64.86
2023-04-20T01:43:26.812Z,65.43
2023-04-20T01:48:30.126Z,64.78
2023-04-20T01:53:34.822Z,64.44
2023-04-20T01:58:38.234Z,64.25
2023-04-20T02:03:41.593Z,64.43
2023-04-20T02:08:46.384Z,64.50
2023-04-20T02:13:49.650Z,64.65
2023-04-20T02:18:52.923Z,64.83
2023-04-20T02:23:57.634Z,64.85
2023-04-20T02:29:00.880Z,64.68
2023-04-20T02:34:06.352Z,64.63
2023-04-20T02:39:11.431Z,63.63
2023-04-20T02:44:14.592Z,63.43
2023-04-20T02:49:18.244Z,63.96
2023-04-20T02:54:23.133Z,64.08
2023-04-20T02:59:28.049Z,64.27
2023-04-20T03:04:32.313Z,63.87
2023-04-20T03:09:37.439Z,63.81
2023-04-20T03:14:40.632Z,63.65
2023-04-20T03:19:43.923Z,64.49
2023-04-20T03:24:50.785Z,64.35
2023-04-20T03:29:56.283Z,64.33
2023-04-20T03:34:59.530Z,64.91
2023-04-20T03:40:04.225Z,64.33
2023-04-20T03:45:08.488Z,64.63
2023-04-20T03:50:12.306Z,65.11
2023-04-20T03:55:16.927Z,65.36
2023-04-20T04:00:20.329Z,65.06
2023-04-20T04:05:23.747Z,64.78
2023-04-20T04:10:28.632Z,64.31
2023-04-20T04:15:32.188Z,64.58
2023-04-20T04:20:35.639Z,63.83
2023-04-20T04:25:40.961Z,63.25
2023-04-20T04:30:44.296Z,63.72
2023-04-20T04:35:48.814Z,63.78
2023-04-20T04:40:54.146Z,62.91
2023-04-20T04:45:58.749Z,63.12
2023-04-20T04:51:02.034Z,63.06
2023-04-20T04:56:07.939Z,62.84
2023-04-20T05:01:11.663Z,62.77
2023-04-20T05:06:14.838Z,62.56
2023-04-20T05:11:19.531Z,62.15
2023-04-20T05:16:22.915Z,62.76
2023-04-20T05:21:26.460Z,63.16
2023-04-20T05:26:31.243Z,62.77
2023-04-20T05:31:34.495Z,64.37
2023-04-20T05:36:38.116Z,63.82
2023-04-20T05:41:42.787Z,63.31
2023-04-20T05:46:46.056Z,62.90
2023-04-20T05:51:49.336Z,62.76
2023-04-20T05:56:54.172Z,63.09
2023-04-20T06:01:57.664Z,62.48
2023-04-20T06:07:01.486Z,62.66
2023-04-20T06:12:06.594Z,62.70
2023-04-20T06:17:09.840Z,62.93
2023-04-20T06:22:13.203Z,62.34
2023-04-20T06:27:17.890Z,62.52
2023-04-20T06:32:21.139Z,62.38
2023-04-20T06:37:24.419Z,62.36
2023-04-20T06:42:29.009Z,62.36
2023-04-20T06:47:33.795Z,62.94
2023-04-20T06:52:38.536Z,62.28
2023-04-20T06:57:44.072Z,62.69
2023-04-20T07:02:48.945Z,63.27
2023-04-20T07:07:52.537Z,63.21
2023-04-20T07:12:57.218Z,63.44
2023-04-20T07:18:00.930Z,63.23
2023-04-20T07:23:04.235Z,62.57
2023-04-20T07:28:08.910Z,62.26
2023-04-20T07:33:12.515Z,62.70
2023-04-20T07:38:17.081Z,62.47
2023-04-20T07:43:21.696Z,62.46
2023-04-20T07:48:24.924Z,62.74
2023-04-20T07:53:28.710Z,62.24
2023-04-20T07:58:33.412Z,61.84
2023-04-20T08:03:37.022Z,61.47
2023-04-20T08:08:40.356Z,61.25
2023-04-20T08:13:45.039Z,61.60
2023-04-20T08:18:48.282Z,61.66
2023-04-20T08:23:51.991Z,61.03
2023-04-20T08:28:56.713Z,60.73
2023-04-20T08:33:59.692Z,60.66
2023-04-20T08:39:08.212Z,60.09
2023-04-20T08:44:12.975Z,58.34
2023-04-20T08:49:16.778Z,57.25
2023-04-20T08:54:20.170Z,53.80
2023-04-20T08:59:24.881Z,51.39
2023-04-20T09:04:28.760Z,51.37
2023-04-20T09:09:32.134Z,50.30
2023-04-20T09:14:46.011Z,47.95
2023-04-20T09:19:55.109Z,45.25
2023-04-20T09:24:58.356Z,45.80
2023-04-20T09:30:04.324Z,44.62
2023-04-20T09:35:08.979Z,45.72
2023-04-20T09:40:13.204Z,45.36
2023-04-20T09:45:18.030Z,43.31
2023-04-20T09:50:29.310Z,44.20
2023-04-20T09:55:35.614Z,41.00
2023-04-20T10:00:40.300Z,40.87
2023-04-20T10:05:43.556Z,39.29
2023-04-20T10:10:48.806Z,38.18
2023-04-20T10:15:53.579Z,37.00
2023-04-20T10:21:06.832Z,37.26
2023-04-20T10:26:10.061Z,38.35
2023-04-20T10:31:17.088Z,37.73
2023-04-20T10:36:31.191Z,38.97
2023-04-20T10:41:34.508Z,37.08
2023-04-20T10:46:39.107Z,36.81
2023-04-20T10:51:48.461Z,37.19
2023-04-20T10:56:52.860Z,38.65
2023-04-20T11:01:59.719Z,38.94
2023-04-20T11:07:07.222Z,39.70
2023-04-20T11:12:12.241Z,40.82
2023-04-20T11:17:16.960Z,39.84
2023-04-20T11:22:23.983Z,42.14
2023-04-20T11:27:27.399Z,42.06
2023-04-20T11:32:32.016Z,42.83
2023-04-20T11:37:35.927Z,42.56
2023-04-20T11:42:39.077Z,42.64
2023-04-20T11:47:43.816Z,42.08
2023-04-20T11:52:46.978Z,41.61
2023-04-20T11:57:50.212Z,43.79
2023-04-20T12:02:54.861Z,43.96
2023-04-20T12:07:58.052Z,44.26
2023-04-20T12:13:01.345Z,43.93
2023-04-20T12:18:06.232Z,44.45
2023-04-20T12:23:09.609Z,45.03
2023-04-20T12:28:12.892Z,44.97
2023-04-20T12:33:17.530Z,44.04
2023-04-20T12:38:20.778Z,45.29
2023-04-20T12:43:24.009Z,44.89
2023-04-20T12:48:28.677Z,44.27
2023-04-20T12:53:31.970Z,44.24
2023-04-20T12:58:35.241Z,43.84
2023-04-20T13:03:40.441Z,42.89
2023-04-20T13:08:43.891Z,44.22
2023-04-20T13:13:47.329Z,44.77
2023-04-20T13:18:52.025Z,44.09
2023-04-20T13:23:56.843Z,44.10
2023-04-20T13:29:00.420Z,44.22
2023-04-20T13:34:05.094Z,44.13
2023-04-20T13:39:09.004Z,43.81
2023-04-20T13:44:16.229Z,43.72
2023-04-20T13:49:22.987Z,44.39
2023-04-20T13:54:26.250Z,44.08
2023-04-20T13:59:29.424Z,43.18
2023-04-20T14:04:34.133Z,43.57
2023-04-20T14:09:37.420Z,44.21
2023-04-20T14:14:41.190Z,44.30
2023-04-20T14:19:45.947Z,44.41
2023-04-20T14:24:49.570Z,44.63
2023-04-20T14:29:52.810Z,45.19
2023-04-20T14:34:57.453Z,44.85
2023-04-20T14:40:00.681Z,45.23
2023-04-20T14:45:03.989Z,44.54
2023-04-20T14:50:10.315Z,44.67
2023-04-20T14:55:13.582Z,44.61
2023-04-20T15:00:18.133Z,45.32
2023-04-20T15:05:22.956Z,45.00
2023-04-20T15:10:26.405Z,45.22
2023-04-20T15:15:41.263Z,45.06
2023-04-20T15:20:53.742Z,45.71
2023-04-20T15:25:57.007Z,45.24
2023-04-20T15:31:00.357Z,45.46
2023-04-20T15:36:05.280Z,46.17
2023-04-20T15:41:09.145Z,45.23
2023-04-20T15:46:12.461Z,46.03
2023-04-20T15:51:17.829Z,46.58
2023-04-20T15:56:22.834Z,46.12
2023-04-20T16:01:26.125Z,45.88
2023-04-20T16:06:31.860Z,46.70
2023-04-20T16:11:35.203Z,46.98
2023-04-20T16:16:38.577Z,47.63
2023-04-20T16:21:43.207Z,47.66
2023-04-20T16:26:46.625Z,48.61
2023-04-20T16:31:49.962Z,48.44
2023-04-20T16:36:54.877Z,48.52
2023-04-20T16:41:58.776Z,48.81
2023-04-20T16:47:02.290Z,49.39
2023-04-20T16:52:07.098Z,49.56
2023-04-20T16:57:10.292Z,50.44
2023-04-20T17:02:13.586Z,50.33
2023-04-20T17:07:18.250Z,50.70
2023-04-20T17:12:21.508Z,50.71
2023-04-20T17:17:26.271Z,51.01
2023-04-20T17:22:31.007Z,51.17
2023-04-20T17:27:34.334Z,51.22
2023-04-20T17:32:37.623Z,50.86
2023-04-20T17:37:42.469Z,51.31
2023-04-20T17:42:46.163Z,51.00
2023-04-20T17:47:49.389Z,51.26
2023-04-20T17:52:54.031Z,51.64
2023-04-20T17:57:57.270Z,51.96
2023-04-20T18:03:01.085Z,52.16
2023-04-20T18:08:06.323Z,52.66
2023-04-20T18:13:09.540Z,52.62
2023-04-20T18:18:12.726Z,53.47
2023-04-20T18:23:17.647Z,53.63
2023-04-20T18:28:21.381Z,53.91
2023-04-20T18:33:24.639Z,54.22
2023-04-20T18:38:29.228Z,54.44
2023-04-20T18:43:32.531Z,54.67
2023-04-20T18:48:35.945Z,54.82
2023-04-20T18:53:40.643Z,54.31
2023-04-20T18:58:43.533Z,55.35
2023-04-20T19:03:48.048Z,54.60
2023-04-20T19:08:52.957Z,54.31
2023-04-20T19:13:55.970Z,55.18
2023-04-20T19:18:59.536Z,55.12
2023-04-20T19:24:04.158Z,54.81
2023-04-20T19:29:07.096Z,55.43
2023-04-20T19:34:13.588Z,55.19
2023-04-20T19:39:18.323Z,55.24
2023-04-20T19:44:21.363Z,55.97
2023-04-20T19:49:24.591Z,55.53
2023-04-20T19:54:29.285Z,55.61
2023-04-20T19:59:32.982Z,56.15
2023-04-20T20:04:38.048Z,55.94
2023-04-20T20:09:44.888Z,56.47
2023-04-20T20:14:48.192Z,57.12
2023-04-20T20:19:53.765Z,57.26
2023-04-20T20:25:01.364Z,57.72
2023-04-20T20:30:04.890Z,57.46
2023-04-20T20:35:11.707Z,57.74
2023-04-20T20:40:16.951Z,58.45
2023-04-20T20:45:20.238Z,58.45
2023-04-20T20:50:24.102Z,59.01
2023-04-20T20:55:28.765Z,58.97
2023-04-20T21:00:33.648Z,59.56
2023-04-20T21:05:36.922Z,60.54
2023-04-20T21:10:41.508Z,60.65
2023-04-20T21:15:44.735Z,60.23
2023-04-20T21:20:48.013Z,60.31
2023-04-20T21:25:52.691Z,60.09
2023-04-20T21:30:55.930Z,60.50
2023-04-20T21:35:59.182Z,60.81
2023-04-20T21:41:03.892Z,60.72
2023-04-20T21:46:07.159Z,60.28
2023-04-20T21:51:10.427Z,60.36
2023-04-20T21:56:15.950Z,60.92
2023-04-20T22:01:19.233Z,60.34
2023-04-20T22:06:22.515Z,60.36
2023-04-20T22:11:27.329Z,60.20
2023-04-20T22:16:30.346Z,60.91
2023-04-20T22:21:33.711Z,61.94
2023-04-20T22:26:38.359Z,62.77
2023-04-20T22:31:41.638Z,63.05
2023-04-20T22:36:44.844Z,63.97
2023-04-20T22:41:49.485Z,63.41
2023-04-20T22:46:52.847Z,63.49
2023-04-20T22:51:57.278Z,64.26
2023-04-20T22:57:02.224Z,63.84
2023-04-20T23:02:05.267Z,64.28
2023-04-20T23:07:08.622Z,63.37
2023-04-20T23:12:13.242Z,63.44
2023-04-20T23:17:16.468Z,63.30
2023-04-20T23:22:20.136Z,62.90
2023-04-20T23:27:24.812Z,63.03
2023-04-20T23:32:28.157Z,63.14
2023-04-20T23:37:31.512Z,63.02
2023-04-20T23:42:37.611Z,64.09
2023-04-20T23:47:41.122Z,64.37
2023-04-20T23:52:44.410Z,64.68
2023-04-20T23:57:49.725Z,64.00
